G Wood, Mississippi
Current Conditions -  °F | °C
As of 8:53 AM on Saturday 20 Dec 2014 (Local Time) from KGWO Reporting Station
Clear Clear  
Wind Chill: 37°   Ceiling: Unl
Heat Index: 42°   Visibility: 10mi
Dew Point: 37°   Wind: 8mph
Humidity: 82%   Direction: 60°ENE
Pressure: 30.27"   Gusts: NA
Location:  33.5163°N, 90.1795°W
Report Text: KGWO 201453Z AUTO 06007KT 10SM CLR 06/03 A3027 RMK AO2 SLP249 T00560028 51015
Loading
Personal Weather Stations






























Interactive Weather Map New forecast layout! Learn more

10-Day Weather Forecast

Advertisements
Track Severe Weather on mobile